Apollo Beach, Florida
Current Conditions -  °F | °C
As of 2:58 PM on Wednesday 17 Dec 2014 (Local Time) from KMCF Reporting Station
Clear Clear  
Wind Chill: 76°   Ceiling: Unl
Heat Index: 76°   Visibility: 10mi
Dew Point: 56°   Wind: 6mph
Humidity: 50%   Direction: 300°WNW
Pressure: 30.12"   Gusts: NA
Location:  27.77°N, 82.39°W
Report Text: KMCF 171958Z AUTO 30005KT 10SM CLR 24/13 A3012 RMK AO2 SLP203 T02430132 $
Loading
Personal Weather Stations






























Interactive Weather Map New forecast layout! Learn more

10-Day Weather Forecast

Advertisements
Track Severe Weather on mobile